Time;durP1;ratioP1;P1;durP2;ratioP2;P2;SDS_P1;SDS_P2;PMS_P1;PMS_P2;Temp;Humidity;BMP_temperature;BMP_pressure;BME280_temperature;BME280_humidity;BME280_pressure;Samples;Min_cycle;Max_cycle;Signal;HPM_P1;HPM_P2
2023/07/08 00:00:28;;;;;;;10.13;8.18;;;22.60;35.50;;;;;;5028856;28;20025;-79
2023/07/08 00:02:53;;;;;;;14.05;8.38;;;22.60;35.70;;;;;;5030512;28;20121;-79
2023/07/08 00:05:21;;;;;;;12.48;8.50;;;22.60;35.80;;;;;;5030004;28;20465;-77
2023/07/08 00:07:47;;;;;;;11.63;7.93;;;22.60;35.80;;;;;;5029883;28;20033;-79
2023/07/08 00:10:20;;;;;;;11.13;8.23;;;22.50;35.90;;;;;;5029989;28;20098;-78
2023/07/08 00:12:49;;;;;;;14.55;9.00;;;22.50;36.10;;;;;;5030012;28;20038;-70
2023/07/08 00:15:15;;;;;;;11.88;8.85;;;22.50;36.30;;;;;;5029754;28;20038;-70
2023/07/08 00:17:41;;;;;;;10.52;8.25;;;22.50;36.40;;;;;;5030333;28;20034;-79
2023/07/08 00:20:32;;;;;;;11.55;7.93;;;22.50;36.50;;;;;;5030008;28;20025;-78
2023/07/08 00:23:01;;;;;;;11.38;8.80;;;22.50;36.50;;;;;;5029912;28;20034;-77
2023/07/08 00:25:27;;;;;;;10.35;8.60;;;22.60;36.50;;;;;;5030033;28;20382;-79
2023/07/08 00:27:52;;;;;;;10.25;7.78;;;22.60;36.60;;;;;;5028638;28;20435;-77
2023/07/08 00:30:18;;;;;;;10.98;7.72;;;22.60;36.80;;;;;;5029957;28;20021;-78
2023/07/08 00:32:44;;;;;;;9.70;7.78;;;22.60;36.90;;;;;;5029634;28;20025;-73
2023/07/08 00:35:09;;;;;;;10.95;7.68;;;22.60;37.00;;;;;;5029819;28;20081;-75
2023/07/08 00:37:35;;;;;;;12.13;8.23;;;22.60;37.20;;;;;;5029819;28;20108;-78
2023/07/08 00:40:00;;;;;;;11.20;8.50;;;22.60;37.20;;;;;;5029704;28;20029;-78
2023/07/08 00:42:26;;;;;;;9.10;7.70;;;22.60;37.30;;;;;;5029559;28;20042;-71
2023/07/08 00:44:51;;;;;;;11.70;8.60;;;22.60;37.30;;;;;;5029685;28;20444;-74
2023/07/08 00:47:18;;;;;;;10.35;7.88;;;22.60;37.30;;;;;;5029633;28;20045;-71
2023/07/08 00:49:52;;;;;;;11.40;7.60;;;22.60;37.20;;;;;;5029119;28;20021;-73
2023/07/08 00:52:26;;;;;;;11.60;8.10;;;22.60;37.30;;;;;;5029518;28;20025;-71
2023/07/08 00:54:53;;;;;;;11.95;8.82;;;22.60;37.50;;;;;;5029371;28;20025;-71
2023/07/08 00:57:20;;;;;;;13.55;8.82;;;22.60;38.30;;;;;;5029742;28;20405;-71
2023/07/08 00:59:52;;;;;;;10.85;8.18;;;22.60;37.60;;;;;;5029526;28;20018;-72
2023/07/08 01:02:21;;;;;;;10.75;8.02;;;22.60;38.40;;;;;;5029363;28;20035;-78
2023/07/08 01:04:58;;;;;;;11.65;7.90;;;22.60;37.60;;;;;;5029428;28;20112;-69
2023/07/08 01:07:26;;;;;;;11.80;7.50;;;22.60;38.00;;;;;;5029292;28;20038;-71
2023/07/08 01:09:58;;;;;;;9.82;8.27;;;22.60;37.70;;;;;;5029513;28;20029;-71
2023/07/08 01:12:32;;;;;;;12.00;7.63;;;22.60;37.80;;;;;;5029424;28;20423;-70
2023/07/08 01:15:02;;;;;;;12.38;8.25;;;22.50;38.00;;;;;;5029406;28;20044;-72
2023/07/08 01:17:32;;;;;;;10.48;7.80;;;22.40;38.10;;;;;;5029254;28;20022;-71
2023/07/08 01:19:59;;;;;;;13.20;8.75;;;22.40;38.30;;;;;;5029321;28;20100;-70
2023/07/08 01:22:24;;;;;;;10.10;7.88;;;22.40;38.30;;;;;;5029201;28;20386;-71
2023/07/08 01:24:50;;;;;;;12.07;8.88;;;22.40;38.40;;;;;;5029188;28;20022;-71
2023/07/08 01:27:19;;;;;;;10.95;8.50;;;22.20;38.30;;;;;;5027334;28;20042;-70
2023/07/08 01:29:46;;;;;;;12.23;9.00;;;22.10;38.60;;;;;;5027898;28;20026;-76
2023/07/08 01:32:17;;;;;;;10.43;8.45;;;21.90;39.10;;;;;;5029189;28;20492;-77
2023/07/08 01:34:59;;;;;;;12.25;8.80;;;21.80;39.30;;;;;;5029286;28;20425;-78
2023/07/08 01:37:35;;;;;;;12.65;8.82;;;21.70;39.60;;;;;;5029231;28;20021;-78
2023/07/08 01:40:19;;;;;;;12.38;8.75;;;21.50;40.30;;;;;;5028010;28;20118;-73
2023/07/08 01:42:45;;;;;;;10.80;8.23;;;21.40;40.80;;;;;;5028883;28;20042;-73
2023/07/08 01:45:16;;;;;;;18.23;8.55;;;21.40;41.00;;;;;;5031507;28;20102;-70
2023/07/08 01:47:48;;;;;;;10.60;8.48;;;21.40;40.70;;;;;;5032340;28;20040;-71
2023/07/08 01:50:14;;;;;;;12.77;9.00;;;21.50;40.90;;;;;;5032614;28;20026;-71
2023/07/08 01:52:40;;;;;;;10.88;8.63;;;21.40;40.50;;;;;;5030955;28;20036;-78
2023/07/08 01:55:06;;;;;;;10.10;8.10;;;21.40;40.20;;;;;;5032116;28;20029;-79
2023/07/08 01:57:31;;;;;;;13.07;8.00;;;21.40;40.20;;;;;;5032319;28;20022;-71
2023/07/08 01:59:57;;;;;;;11.30;8.43;;;21.50;40.30;;;;;;5032128;28;20032;-73
2023/07/08 02:02:24;;;;;;;12.18;8.63;;;21.50;40.50;;;;;;5030929;28;20026;-71
2023/07/08 02:04:50;;;;;;;11.70;8.45;;;21.50;40.20;;;;;;5032134;28;20470;-70
2023/07/08 02:07:15;;;;;;;12.63;8.38;;;21.50;40.20;;;;;;5032071;28;20125;-70
2023/07/08 02:09:41;;;;;;;13.15;8.20;;;21.60;40.80;;;;;;5032107;28;20029;-70
2023/07/08 02:12:07;;;;;;;11.82;8.35;;;21.70;40.20;;;;;;5032157;28;20029;-71
2023/07/08 02:14:32;;;;;;;13.60;8.45;;;21.70;40.40;;;;;;5031854;28;20026;-72
2023/07/08 02:16:58;;;;;;;9.63;8.05;;;21.60;41.00;;;;;;5031767;28;20091;-73
2023/07/08 02:19:24;;;;;;;9.98;7.68;;;21.60;40.30;;;;;;5031981;28;20030;-70
2023/07/08 02:21:51;;;;;;;12.82;8.77;;;21.70;40.50;;;;;;5031901;28;20509;-72
2023/07/08 02:24:18;;;;;;;11.05;7.90;;;21.70;40.30;;;;;;5031855;28;20484;-74
2023/07/08 02:26:47;;;;;;;9.68;7.70;;;21.80;40.40;;;;;;5031877;28;20030;-76
2023/07/08 02:29:12;;;;;;;11.18;8.35;;;21.80;40.40;;;;;;5032014;28;20028;-74
2023/07/08 02:31:38;;;;;;;13.45;8.65;;;21.80;40.40;;;;;;5031849;28;20026;-70
2023/07/08 02:34:03;;;;;;;11.20;8.15;;;21.90;40.40;;;;;;5030410;28;20029;-72
2023/07/08 02:36:29;;;;;;;12.35;8.75;;;21.90;40.40;;;;;;5031757;28;20063;-73
2023/07/08 02:38:55;;;;;;;12.50;8.63;;;21.90;40.40;;;;;;5031655;28;20029;-72
2023/07/08 02:41:20;;;;;;;10.48;8.20;;;21.90;40.40;;;;;;5031481;28;20037;-70
2023/07/08 02:43:46;;;;;;;12.85;8.63;;;21.90;40.30;;;;;;5031549;28;20482;-70
2023/07/08 02:46:12;;;;;;;11.57;7.50;;;21.90;40.50;;;;;;5031222;28;20036;-71
2023/07/08 02:48:37;;;;;;;9.55;7.60;;;21.90;40.30;;;;;;5030084;28;20022;-71
2023/07/08 02:51:04;;;;;;;9.50;7.75;;;21.90;40.40;;;;;;5031280;28;20030;-69
2023/07/08 02:53:30;;;;;;;11.60;8.30;;;21.90;40.60;;;;;;5030998;28;20029;-70
2023/07/08 02:55:56;;;;;;;10.27;7.97;;;21.90;40.40;;;;;;5030060;28;20397;-68
2023/07/08 02:58:21;;;;;;;8.82;7.13;;;21.80;40.20;;;;;;5031247;28;20021;-69
2023/07/08 03:01:00;;;;;;;9.48;7.40;;;21.80;39.70;;;;;;5031167;28;20119;-69
2023/07/08 03:03:28;;;;;;;17.02;7.28;;;21.90;39.90;;;;;;5031162;28;20453;-69
2023/07/08 03:06:02;;;;;;;8.38;6.38;;;21.90;39.80;;;;;;5031026;28;20026;-68
2023/07/08 03:08:29;;;;;;;10.38;7.05;;;21.90;39.10;;;;;;5031006;28;20550;-69
2023/07/08 03:11:00;;;;;;;9.27;6.45;;;21.80;39.40;;;;;;5031033;28;20039;-68
2023/07/08 03:13:26;;;;;;;9.18;6.45;;;21.80;39.60;;;;;;5030697;28;20050;-69
2023/07/08 03:15:52;;;;;;;9.30;6.47;;;21.80;39.90;;;;;;5031074;28;20539;-68
2023/07/08 03:18:17;;;;;;;10.13;6.80;;;21.80;40.10;;;;;;5031119;28;20029;-68
2023/07/08 03:20:46;;;;;;;10.70;7.13;;;21.80;40.50;;;;;;5031002;28;20440;-68
2023/07/08 03:23:12;;;;;;;10.27;7.13;;;21.80;40.60;;;;;;5030932;28;20033;-68
2023/07/08 03:25:38;;;;;;;13.52;7.28;;;21.80;40.20;;;;;;5030523;28;20074;-72
2023/07/08 03:28:12;;;;;;;9.98;6.32;;;21.70;40.60;;;;;;5030583;28;20030;-68
2023/07/08 03:30:38;;;;;;;10.73;6.97;;;21.50;41.30;;;;;;5030852;28;20029;-68
2023/07/08 03:33:03;;;;;;;11.38;7.20;;;21.30;41.90;;;;;;5030718;28;20094;-68
2023/07/08 03:35:29;;;;;;;9.65;6.72;;;21.20;42.90;;;;;;5030716;28;20018;-68
2023/07/08 03:37:54;;;;;;;9.48;6.57;;;21.10;43.20;;;;;;5030613;28;20026;-69
2023/07/08 03:40:20;;;;;;;8.60;6.32;;;21.00;43.30;;;;;;5030432;28;20022;-68
2023/07/08 03:42:45;;;;;;;8.10;6.68;;;21.10;43.50;;;;;;5030133;28;20061;-69
2023/07/08 03:45:11;;;;;;;9.38;7.13;;;21.00;43.40;;;;;;5030474;28;20033;-73
2023/07/08 03:47:36;;;;;;;9.30;6.78;;;21.00;43.60;;;;;;5030322;28;20041;-73
2023/07/08 03:50:03;;;;;;;10.13;6.43;;;21.10;43.60;;;;;;5030176;28;20078;-74
2023/07/08 03:52:28;;;;;;;9.75;6.95;;;21.00;43.60;;;;;;5029046;28;20113;-73
2023/07/08 03:54:54;;;;;;;9.93;6.65;;;21.00;43.80;;;;;;5030248;28;20100;-75
2023/07/08 03:57:19;;;;;;;11.57;6.28;;;21.10;43.80;;;;;;5030236;28;20036;-74
2023/07/08 03:59:45;;;;;;;9.00;6.88;;;21.20;43.40;;;;;;5030437;28;20030;-74
2023/07/08 04:02:11;;;;;;;9.75;6.20;;;21.20;43.10;;;;;;5030126;28;20026;-73
2023/07/08 04:04:37;;;;;;;10.05;6.88;;;21.30;43.20;;;;;;5030197;28;20013;-75
2023/07/08 04:07:04;;;;;;;8.55;6.22;;;21.40;43.30;;;;;;5028497;28;20066;-75
2023/07/08 04:09:29;;;;;;;9.65;6.00;;;21.40;43.60;;;;;;5030028;28;20465;-73
2023/07/08 04:11:55;;;;;;;9.60;6.50;;;21.40;43.80;;;;;;5030173;28;20081;-74
2023/07/08 04:14:21;;;;;;;9.35;6.78;;;21.40;44.10;;;;;;5030094;28;20045;-74
2023/07/08 04:16:51;;;;;;;16.92;7.30;;;21.40;44.50;;;;;;5029846;28;20043;-73
2023/07/08 04:19:17;;;;;;;14.68;7.63;;;21.30;44.30;;;;;;5030054;28;20026;-71
2023/07/08 04:21:43;;;;;;;10.25;7.60;;;21.30;44.60;;;;;;5029476;28;20618;-72
2023/07/08 04:24:14;;;;;;;11.98;7.93;;;21.30;44.90;;;;;;5029774;28;20060;-73
2023/07/08 04:26:40;;;;;;;10.05;8.13;;;21.10;45.50;;;;;;5029597;28;20141;-71
2023/07/08 04:29:18;;;;;;;10.93;7.68;;;21.00;46.00;;;;;;5029755;28;20109;-75
2023/07/08 04:31:44;;;;;;;10.10;7.05;;;21.00;45.90;;;;;;5029900;28;20033;-69
2023/07/08 04:34:10;;;;;;;13.48;8.15;;;21.10;45.80;;;;;;5029945;28;20030;-74
2023/07/08 04:36:36;;;;;;;10.10;7.43;;;21.20;45.70;;;;;;5029638;28;20045;-73
2023/07/08 04:39:03;;;;;;;10.07;7.18;;;21.30;45.90;;;;;;5029865;28;20359;-74
2023/07/08 04:41:30;;;;;;;13.52;7.88;;;21.30;46.00;;;;;;5028335;28;20097;-73
2023/07/08 04:43:57;;;;;;;8.88;7.07;;;21.30;46.20;;;;;;5029660;28;20042;-70
2023/07/08 04:46:34;;;;;;;8.35;6.18;;;21.20;46.10;;;;;;5029586;28;20061;-70
2023/07/08 04:49:03;;;;;;;10.95;6.43;;;21.10;46.10;;;;;;5028250;28;20377;-69
2023/07/08 04:51:29;;;;;;;10.63;7.15;;;21.20;46.00;;;;;;5029324;28;20036;-69
2023/07/08 04:53:54;;;;;;;7.65;6.43;;;21.20;45.90;;;;;;5029626;28;20030;-69
2023/07/08 04:56:21;;;;;;;11.02;6.22;;;21.20;45.90;;;;;;5029381;28;20022;-69
2023/07/08 04:58:47;;;;;;;9.52;6.93;;;21.20;46.10;;;;;;5029476;28;20105;-69
2023/07/08 05:01:12;;;;;;;9.98;6.47;;;21.00;46.70;;;;;;5029491;28;20104;-68
2023/07/08 05:03:38;;;;;;;10.90;6.60;;;21.00;46.70;;;;;;5029506;28;20030;-68
2023/07/08 05:06:03;;;;;;;9.25;6.25;;;20.90;46.70;;;;;;5029423;28;20057;-71
2023/07/08 05:08:29;;;;;;;11.82;6.22;;;20.90;46.90;;;;;;5029363;28;20443;-71
2023/07/08 05:10:55;;;;;;;8.30;5.70;;;21.00;47.00;;;;;;5028125;28;20484;-69
2023/07/08 05:13:21;;;;;;;8.07;5.30;;;21.00;47.10;;;;;;5029342;28;20034;-69
2023/07/08 05:15:48;;;;;;;8.60;5.78;;;21.10;47.20;;;;;;5029320;28;20025;-70
2023/07/08 05:18:14;;;;;;;7.30;5.65;;;21.10;47.10;;;;;;5029300;28;20033;-73
2023/07/08 05:20:39;;;;;;;7.15;5.20;;;21.20;46.90;;;;;;5032483;28;20028;-74
2023/07/08 05:23:05;;;;;;;9.35;4.05;;;21.30;46.90;;;;;;5032372;28;20060;-74
2023/07/08 05:25:32;;;;;;;5.32;3.17;;;21.30;44.60;;;;;;5032560;28;20021;-69
2023/07/08 05:27:58;;;;;;;6.28;3.67;;;21.50;44.20;;;;;;5032673;28;20037;-72
2023/07/08 05:30:24;;;;;;;7.38;3.63;;;21.60;44.00;;;;;;5032585;28;20073;-75
2023/07/08 05:32:49;;;;;;;10.43;3.65;;;21.70;44.00;;;;;;5032462;28;20052;-69
2023/07/08 05:35:15;;;;;;;4.72;2.60;;;21.70;43.90;;;;;;5032494;28;20029;-68
2023/07/08 05:37:41;;;;;;;4.90;2.53;;;21.80;43.20;;;;;;5032476;28;20044;-73
2023/07/08 05:40:08;;;;;;;6.18;2.45;;;21.90;43.10;;;;;;5032453;28;20021;-74
2023/07/08 05:42:33;;;;;;;6.72;2.92;;;21.90;43.10;;;;;;5032222;28;20465;-75
2023/07/08 05:44:59;;;;;;;5.70;2.90;;;22.00;43.20;;;;;;5032341;28;20025;-74
2023/07/08 05:47:24;;;;;;;3.63;2.65;;;21.90;43.50;;;;;;5032310;28;20041;-72
2023/07/08 05:49:50;;;;;;;7.80;2.95;;;22.00;43.30;;;;;;5031120;28;20519;-75
2023/07/08 05:52:16;;;;;;;5.00;2.65;;;22.10;43.30;;;;;;5032441;28;20381;-69
2023/07/08 05:54:42;;;;;;;4.57;2.53;;;22.10;43.30;;;;;;5032220;28;20068;-70
2023/07/08 05:57:09;;;;;;;6.32;2.60;;;22.10;43.30;;;;;;5032552;28;20034;-68
2023/07/08 05:59:35;;;;;;;6.68;3.05;;;22.20;43.40;;;;;;5032440;28;20104;-69
2023/07/08 06:02:02;;;;;;;5.82;2.80;;;22.10;43.60;;;;;;5031985;28;20503;-69
2023/07/08 06:04:27;;;;;;;3.08;2.50;;;22.10;43.70;;;;;;5031750;28;20121;-72
2023/07/08 06:06:53;;;;;;;4.32;2.70;;;22.10;43.50;;;;;;5031443;28;20116;-70
2023/07/08 06:09:19;;;;;;;3.05;2.33;;;22.20;43.60;;;;;;5031683;28;20104;-70
2023/07/08 06:11:44;;;;;;;5.13;2.72;;;22.30;43.30;;;;;;5031760;28;20022;-70
2023/07/08 06:14:10;;;;;;;6.95;3.10;;;22.40;43.30;;;;;;5031819;28;20025;-71
2023/07/08 06:16:35;;;;;;;6.18;2.47;;;22.40;43.70;;;;;;5031734;28;20037;-70
2023/07/08 06:19:01;;;;;;;4.28;2.72;;;22.40;43.90;;;;;;5031690;28;20026;-73
2023/07/08 06:21:27;;;;;;;6.07;2.83;;;22.40;44.00;;;;;;5031725;28;20031;-73
2023/07/08 06:23:52;;;;;;;3.33;2.45;;;22.40;43.70;;;;;;5030684;28;20163;-74
2023/07/08 06:26:18;;;;;;;5.97;2.85;;;22.40;44.00;;;;;;5031650;28;20040;-75
2023/07/08 06:28:43;;;;;;;3.40;2.30;;;22.30;45.20;;;;;;5031854;28;20029;-69
2023/07/08 06:31:09;;;;;;;5.57;2.45;;;22.20;44.30;;;;;;5031221;28;20021;-68
2023/07/08 06:33:34;;;;;;;6.20;2.40;;;22.20;44.20;;;;;;5031537;28;20155;-67
2023/07/08 06:36:00;;;;;;;3.47;2.10;;;22.30;44.30;;;;;;5031573;28;20026;-68
2023/07/08 06:38:25;;;;;;;4.00;2.40;;;22.40;44.10;;;;;;5031347;28;20478;-68
2023/07/08 06:40:51;;;;;;;4.40;2.30;;;22.40;44.00;;;;;;5031181;28;20047;-71
2023/07/08 06:43:16;;;;;;;3.53;2.10;;;22.50;43.90;;;;;;5031186;28;20149;-69
2023/07/08 06:45:43;;;;;;;5.22;2.08;;;22.50;43.20;;;;;;5031076;28;20032;-70
2023/07/08 06:48:09;;;;;;;3.75;2.13;;;22.50;42.70;;;;;;5030859;28;20037;-69
2023/07/08 06:50:35;;;;;;;3.13;2.00;;;22.60;42.70;;;;;;5031254;28;20028;-71
2023/07/08 06:53:00;;;;;;;6.68;2.38;;;22.50;42.10;;;;;;5031108;28;20038;-71
2023/07/08 06:55:26;;;;;;;4.03;2.28;;;22.60;43.30;;;;;;5031113;28;20130;-71
2023/07/08 06:57:51;;;;;;;6.15;2.50;;;22.60;43.30;;;;;;5031016;28;20355;-68
2023/07/08 07:00:17;;;;;;;4.38;2.28;;;22.80;43.90;;;;;;5030925;28;20358;-69
2023/07/08 07:02:43;;;;;;;9.48;2.70;;;22.90;43.50;;;;;;5030973;28;20022;-69
2023/07/08 07:05:09;;;;;;;3.38;2.22;;;22.90;44.00;;;;;;5030901;28;20388;-68
2023/07/08 07:07:35;;;;;;;3.05;1.90;;;23.00;43.90;;;;;;5030704;28;20576;-70
2023/07/08 07:10:01;;;;;;;4.95;2.65;;;23.00;44.10;;;;;;5030914;28;20023;-70
2023/07/08 07:12:26;;;;;;;4.75;2.50;;;23.10;44.10;;;;;;5030791;28;20061;-70
2023/07/08 07:14:53;;;;;;;6.40;2.20;;;23.20;44.00;;;;;;5030814;28;20125;-71
2023/07/08 07:17:24;;;;;;;4.75;2.20;;;23.30;44.50;;;;;;5030890;28;20025;-69
2023/07/08 07:19:50;;;;;;;5.03;2.22;;;23.20;44.40;;;;;;5030411;28;20029;-71
2023/07/08 07:22:15;;;;;;;4.70;2.28;;;23.30;44.60;;;;;;5030708;28;20029;-69
2023/07/08 07:24:41;;;;;;;4.35;2.50;;;23.40;44.30;;;;;;5030064;28;20021;-70
2023/07/08 07:27:08;;;;;;;3.17;1.90;;;23.30;44.50;;;;;;5030192;28;20037;-71
2023/07/08 07:29:48;;;;;;;8.23;2.10;;;23.30;44.80;;;;;;5030189;28;20108;-70
2023/07/08 07:32:15;;;;;;;5.97;2.30;;;23.40;44.70;;;;;;5030392;28;20036;-72
2023/07/08 07:34:41;;;;;;;8.23;2.25;;;23.60;44.10;;;;;;5030121;28;20072;-70
2023/07/08 07:37:12;;;;;;;3.22;2.03;;;23.70;43.90;;;;;;5030365;28;20100;-69
2023/07/08 07:39:37;;;;;;;3.58;2.20;;;23.90;43.80;;;;;;5030349;28;20117;-70
2023/07/08 07:42:03;;;;;;;11.48;3.55;;;24.00;43.90;;;;;;5029513;28;20128;-71
2023/07/08 07:44:28;;;;;;;5.40;2.72;;;24.20;43.40;;;;;;5030038;28;20101;-72
2023/07/08 07:46:54;;;;;;;5.07;2.25;;;24.20;43.20;;;;;;5030382;28;20078;-71
2023/07/08 07:49:20;;;;;;;3.78;1.90;;;24.30;43.30;;;;;;5030469;28;20029;-71
2023/07/08 07:51:46;;;;;;;3.55;2.20;;;24.20;43.00;;;;;;5030286;28;20041;-74
2023/07/08 07:54:11;;;;;;;4.45;2.45;;;24.30;42.90;;;;;;5030283;28;20029;-71
2023/07/08 07:56:37;;;;;;;5.70;2.20;;;24.40;43.20;;;;;;5030136;28;20021;-71
2023/07/08 07:59:03;;;;;;;5.25;2.28;;;24.50;43.30;;;;;;5030275;28;20109;-71
2023/07/08 08:01:29;;;;;;;4.85;2.55;;;24.60;42.80;;;;;;5030332;28;20051;-71
2023/07/08 08:03:55;;;;;;;3.45;1.85;;;24.70;42.60;;;;;;5028979;28;20033;-73
2023/07/08 08:06:20;;;;;;;3.78;2.13;;;24.80;42.20;;;;;;5028730;28;20489;-71
2023/07/08 08:08:46;;;;;;;4.18;2.33;;;24.90;42.40;;;;;;5028836;28;20063;-71
2023/07/08 08:11:12;;;;;;;4.90;2.08;;;24.90;42.20;;;;;;5029771;28;20431;-71
2023/07/08 08:13:38;;;;;;;2.70;1.80;;;25.00;42.20;;;;;;5028523;28;20033;-76
2023/07/08 08:16:04;;;;;;;2.25;1.83;;;24.90;42.10;;;;;;5030053;28;20485;-73
2023/07/08 08:18:30;;;;;;;7.60;2.35;;;24.90;42.40;;;;;;5030013;28;20108;-72
2023/07/08 08:20:56;;;;;;;4.95;2.05;;;24.80;42.10;;;;;;5028742;28;20158;-72
2023/07/08 08:23:21;;;;;;;5.72;2.10;;;24.80;41.80;;;;;;5029818;28;20109;-72
2023/07/08 08:25:47;;;;;;;3.85;2.20;;;24.90;43.00;;;;;;5029906;28;20097;-72
2023/07/08 08:28:13;;;;;;;4.47;2.55;;;25.00;43.00;;;;;;5028377;28;20029;-72
2023/07/08 08:30:38;;;;;;;3.42;1.23;;;25.10;42.10;;;;;;5028310;28;20026;-73
2023/07/08 08:33:04;;;;;;;4.00;1.30;;;25.10;36.50;;;;;;5028614;28;20378;-73
2023/07/08 08:35:29;;;;;;;1.67;1.20;;;25.10;35.40;;;;;;5029132;28;20067;-75
2023/07/08 08:37:55;;;;;;;2.25;1.33;;;25.10;35.20;;;;;;5044715;28;20041;-73
2023/07/08 08:40:21;;;;;;;2.95;1.10;;;25.20;35.70;;;;;;5029392;28;20381;-73
2023/07/08 08:43:00;;;;;;;2.53;1.38;;;25.20;35.30;;;;;;5028845;28;20057;-73
2023/07/08 08:45:28;;;;;;;2.95;1.50;;;25.20;35.80;;;;;;5029575;28;20143;-71
2023/07/08 08:48:00;;;;;;;4.78;1.60;;;25.10;35.40;;;;;;5028928;28;20157;-73
2023/07/08 08:50:31;;;;;;;2.45;1.48;;;25.10;35.60;;;;;;5029356;28;20484;-72
2023/07/08 08:53:01;;;;;;;2.92;1.40;;;25.10;36.10;;;;;;5029326;28;20042;-73
2023/07/08 08:55:27;;;;;;;2.40;1.60;;;25.10;35.70;;;;;;5032627;28;20028;-74
2023/07/08 08:57:52;;;;;;;2.85;1.75;;;25.20;36.20;;;;;;5033122;27;20040;-74
2023/07/08 09:00:27;;;;;;;4.38;2.00;;;25.30;36.10;;;;;;5033195;28;20381;-73
2023/07/08 09:02:57;;;;;;;;;;;25.40;35.70;;;;;;5033190;28;20057;-74
2023/07/08 09:05:22;;;;;;;3.38;1.90;;;25.60;35.10;;;;;;5032721;28;19952;-72
2023/07/08 09:08:29;;;;;;;6.32;2.40;;;25.60;35.20;;;;;;5032508;28;20438;-72
2023/07/08 09:11:00;;;;;;;2.22;1.83;;;25.80;35.60;;;;;;5073928;28;20431;-72
2023/07/08 09:13:33;;;;;;;2.28;1.50;;;25.80;35.00;;;;;;5038010;28;20033;-73
2023/07/08 09:16:25;;;;;;;3.65;2.10;;;26.00;34.50;;;;;;5032670;28;20026;-73
2023/07/08 09:19:07;;;;;;;2.97;2.10;;;26.30;35.10;;;;;;5032662;28;20037;-73
2023/07/08 09:21:53;;;;;;;4.70;2.00;;;26.60;34.90;;;;;;5032106;28;20022;-75
2023/07/08 09:24:44;;;;;;;3.13;1.70;;;26.70;33.30;;;;;;5033792;28;20052;-78
2023/07/08 09:27:10;;;;;;;3.95;2.00;;;26.80;33.70;;;;;;5032223;28;20515;-74
2023/07/08 09:29:35;;;;;;;4.13;2.45;;;26.80;33.40;;;;;;5032506;28;20469;-74
2023/07/08 09:32:18;;;;;;;4.30;2.10;;;26.90;33.10;;;;;;5032460;28;20074;-74
2023/07/08 09:34:54;;;;;;;4.03;1.63;;;27.00;33.90;;;;;;5032437;28;20401;-73
2023/07/08 09:37:31;;;;;;;3.63;1.60;;;27.20;33.10;;;;;;5032192;28;20509;-74
2023/07/08 09:39:59;;;;;;;4.75;1.73;;;27.10;32.80;;;;;;5032081;28;20107;-75
2023/07/08 09:42:32;;;;;;;3.85;1.88;;;27.30;33.90;;;;;;5032003;28;20452;-73
2023/07/08 09:45:10;;;;;;;4.93;1.90;;;27.40;31.80;;;;;;5031824;28;20021;-73
2023/07/08 09:47:39;;;;;;;5.22;1.85;;;27.20;32.10;;;;;;5032006;28;20041;-73
2023/07/08 09:50:21;;;;;;;2.28;1.70;;;27.20;32.10;;;;;;5031994;28;20075;-72
2023/07/08 09:52:55;;;;;;;3.25;1.45;;;27.40;31.50;;;;;;5032066;28;20040;-74
2023/07/08 09:55:21;;;;;;;2.25;1.27;;;27.30;30.70;;;;;;5031753;28;20029;-74
2023/07/08 09:57:50;;;;;;;2.25;1.20;;;27.10;31.10;;;;;;5031807;28;20033;-74
2023/07/08 10:00:25;;;;;;;2.47;1.33;;;27.10;31.80;;;;;;5031178;28;20037;-72
2023/07/08 10:02:58;;;;;;;3.38;1.33;;;27.00;31.70;;;;;;5031769;28;20069;-74
2023/07/08 10:05:28;;;;;;;2.28;1.42;;;26.90;31.80;;;;;;5031227;28;20033;-73
2023/07/08 10:07:56;;;;;;;2.25;1.33;;;27.00;32.50;;;;;;5031667;28;20504;-73
2023/07/08 10:10:37;;;;;;;3.67;1.27;;;27.10;33.10;;;;;;5031559;28;20029;-76
2023/07/08 10:13:17;;;;;;;1.75;1.10;;;27.20;32.80;;;;;;5031758;28;20037;-75
2023/07/08 10:15:47;;;;;;;1.85;1.10;;;27.10;32.20;;;;;;5031793;28;20474;-75
2023/07/08 10:18:20;;;;;;;1.88;1.10;;;26.90;32.40;;;;;;5031175;28;20492;-73
2023/07/08 10:20:54;;;;;;;2.38;0.98;;;27.20;33.40;;;;;;5031123;28;20086;-74
2023/07/08 10:23:34;;;;;;;0.90;0.80;;;27.30;33.50;;;;;;5031387;28;20102;-73
2023/07/08 10:26:21;;;;;;;2.08;1.23;;;27.60;32.20;;;;;;5031343;28;20159;-73
2023/07/08 10:28:52;;;;;;;2.45;0.93;;;27.50;32.60;;;;;;5031341;28;20030;-72
2023/07/08 10:32:19;;;;;;;1.63;0.95;;;27.50;32.10;;;;;;5031165;28;20500;-73
2023/07/08 10:34:59;;;;;;;1.50;1.00;;;27.60;32.90;;;;;;5061380;28;20155;-72
2023/07/08 10:37:47;;;;;;;1.05;0.70;;;27.90;31.40;;;;;;5055414;28;20395;-72
2023/07/08 10:40:47;;;;;;;1.00;0.90;;;28.00;31.40;;;;;;5036655;28;20041;-72
2023/07/08 10:43:15;;;;;;;1.35;1.00;;;27.90;31.20;;;;;;5031072;28;20052;-72
2023/07/08 10:45:51;;;;;;;1.00;0.90;;;28.10;30.80;;;;;;5031220;28;20422;-74
2023/07/08 10:48:33;;;;;;;2.22;1.10;;;28.00;31.30;;;;;;5031182;28;20045;-74
2023/07/08 10:51:31;;;;;;;1.58;1.13;;;28.10;31.20;;;;;;5031077;28;20064;-74
2023/07/08 10:54:51;;;;;;;2.25;1.13;;;28.20;29.50;;;;;;5031286;28;20032;-73
2023/07/08 10:57:43;;;;;;;3.97;1.27;;;28.00;29.90;;;;;;5072057;28;20052;-74
2023/07/08 11:00:15;;;;;;;1.35;1.05;;;28.10;30.30;;;;;;5032631;28;20041;-74
2023/07/08 11:03:28;;;;;;;2.85;1.40;;;28.30;30.30;;;;;;5035345;28;20079;-75
2023/07/08 11:06:20;;;;;;;2.53;1.38;;;28.20;30.60;;;;;;5030885;27;20030;-73
2023/07/08 11:08:56;;;;;;;2.85;1.70;;;28.50;30.30;;;;;;5035169;28;20045;-72
2023/07/08 11:11:42;;;;;;;5.30;1.40;;;28.80;30.00;;;;;;5031018;28;20109;-72
2023/07/08 11:14:16;;;;;;;1.98;1.50;;;28.70;29.30;;;;;;5031158;28;20506;-73
2023/07/08 11:16:51;;;;;;;1.52;1.13;;;28.80;29.70;;;;;;5030096;28;20378;-73
2023/07/08 11:19:24;;;;;;;1.98;1.60;;;28.90;30.30;;;;;;5029581;28;20116;-73
2023/07/08 11:21:57;;;;;;;3.72;1.50;;;28.80;29.20;;;;;;5030876;28;20470;-73
2023/07/08 11:24:50;;;;;;;2.92;1.50;;;28.60;30.20;;;;;;5030859;28;20196;-74
2023/07/08 11:27:27;;;;;;;2.85;1.58;;;28.70;30.40;;;;;;5030578;28;20052;-73
2023/07/08 11:30:05;;;;;;;2.58;1.40;;;28.60;29.80;;;;;;5030793;28;20024;-75
2023/07/08 11:32:33;;;;;;;2.08;1.48;;;28.70;29.60;;;;;;5031767;28;20040;-73
2023/07/08 11:35:02;;;;;;;3.47;1.40;;;28.70;28.90;;;;;;5030040;28;20055;-73
2023/07/08 11:37:30;;;;;;;2.30;1.70;;;28.80;28.40;;;;;;5029113;28;20090;-73
2023/07/08 11:40:18;;;;;;;1.70;1.40;;;28.80;28.70;;;;;;5030586;28;20469;-74
2023/07/08 11:42:48;;;;;;;3.25;1.33;;;28.80;28.10;;;;;;5008902;28;20144;-73
2023/07/08 11:45:31;;;;;;;2.03;1.40;;;28.70;29.00;;;;;;5010659;28;20475;-75
2023/07/08 11:48:20;;;;;;;2.50;1.70;;;28.80;28.80;;;;;;5010743;28;20102;-73
2023/07/08 11:50:47;;;;;;;2.03;1.30;;;28.90;27.20;;;;;;5010639;28;20021;-73
2023/07/08 11:53:31;;;;;;;1.83;1.40;;;28.90;27.70;;;;;;5010896;28;20112;-73
2023/07/08 11:56:20;;;;;;;2.72;1.77;;;29.30;28.60;;;;;;5009155;28;20026;-74
2023/07/08 11:59:09;;;;;;;1.92;1.65;;;29.50;28.20;;;;;;5010489;28;20029;-73
2023/07/08 12:01:40;;;;;;;3.30;1.75;;;29.80;26.90;;;;;;5010438;28;20098;-73
2023/07/08 12:04:09;;;;;;;2.03;1.30;;;30.20;26.10;;;;;;5010290;28;20026;-73
2023/07/08 12:06:34;;;;;;;2.80;1.23;;;30.40;25.20;;;;;;5010417;28;20030;-73
2023/07/08 12:09:19;;;;;;;2.53;1.45;;;30.70;25.90;;;;;;5010416;28;20056;-73
2023/07/08 12:11:47;;;;;;;2.70;1.43;;;30.80;25.00;;;;;;5010522;28;20481;-73
2023/07/08 12:14:14;;;;;;;3.13;1.75;;;30.60;25.50;;;;;;5010169;28;20488;-72
2023/07/08 12:16:42;;;;;;;2.50;1.75;;;30.70;25.00;;;;;;5010169;28;20026;-73
2023/07/08 12:19:13;;;;;;;1.67;1.38;;;30.60;25.70;;;;;;5025295;28;20030;-72
2023/07/08 12:21:41;;;;;;;3.05;1.60;;;30.70;25.00;;;;;;5009984;28;20033;-72
2023/07/08 12:24:10;;;;;;;6.03;2.00;;;30.80;24.60;;;;;;5010188;28;20116;-72
2023/07/08 12:26:36;;;;;;;2.58;1.50;;;30.60;26.50;;;;;;5011944;28;20183;-71
2023/07/08 12:29:02;;;;;;;3.13;1.65;;;30.70;26.00;;;;;;5009825;28;20474;-72
2023/07/08 12:31:28;;;;;;;5.07;1.70;;;30.90;26.20;;;;;;5009932;28;20355;-72
2023/07/08 12:33:55;;;;;;;3.50;1.88;;;31.00;27.20;;;;;;5009683;28;20377;-72
2023/07/08 12:36:27;;;;;;;5.13;1.92;;;30.70;25.80;;;;;;5009814;28;20033;-73
2023/07/08 12:38:56;;;;;;;2.95;1.80;;;30.50;27.20;;;;;;5010093;28;20051;-73
2023/07/08 12:41:34;;;;;;;3.88;1.83;;;30.50;26.50;;;;;;5009688;28;20042;-74
2023/07/08 12:44:01;;;;;;;4.28;1.63;;;30.40;26.70;;;;;;5009737;28;20034;-76
2023/07/08 12:46:27;;;;;;;2.55;1.60;;;30.30;27.60;;;;;;5008370;28;20034;-77
2023/07/08 12:48:53;;;;;;;4.03;2.03;;;30.50;26.20;;;;;;5009774;28;20022;-80
2023/07/08 12:51:24;;;;;;;2.88;1.88;;;30.60;26.60;;;;;;5009796;28;20438;-79
2023/07/08 12:53:52;;;;;;;4.05;1.98;;;30.70;25.90;;;;;;5008251;28;20339;-74
2023/07/08 12:56:19;;;;;;;2.40;1.60;;;31.10;25.70;;;;;;5009403;28;20026;-76